Webb City, MO

9:13 AM CDT on September 02, 2014 (GMT -0500)
Joplin Regional | Change Station
CLOSE
Current Station
Airport
Location: Joplin,
Elevation: 981 ft
Nearby Weather Stations

Elev 981 ft 37.15 °N, 94.50 °W | Updated 20 minutes ago

Light Rain
Light Rain
67 °F
Feels Like 67 °F
N
9
Wind Variable Wind from SSE

Today
High -- | Low -- °F
--% Chance of Precip.
Yesterday
High -- | Low -- °F
Precip. -- in
6:49 AM 7:45 PM
First Quarter, 52% visible
Pressure 29.94 in
Visibility 10.0 miles
Clouds Few 8000 ft
Scattered Clouds 11000 ft
Dew Point 65 °F
Humidity 93%
Rainfall 1.05 in
Snow Depth Not available.
UV 2 out of 12
Pollen 7.10 out of 12
Air Quality Not available.
Flu Activity Not available.
METAR KJLN 021353Z 15008KT 10SM -RA FEW080 SCT110 19/18 A2997 RMK AO2 SLP139 P0002 T01940183

More Conditions Fewer Conditions

Pressure 29.94 in
Visibility 10.0 miles
Clouds Few 8000 ft
Scattered Clouds 11000 ft
Dew Point 65 °F
Humidity 93%
Rainfall 1.05 in
Snow Depth Not available.
UV 2 out of 12
Pollen 7.10 out of 12
Air Quality Not available.
Flu Activity Not available.
METAR KJLN 021353Z 15008KT 10SM -RA FEW080 SCT110 19/18 A2997 RMK AO2 SLP139 P0002 T01940183

More Conditions Fewer Conditions

10-Day Weather Forecast

Almanac

Astronomy

Sep. 02, 2014 Rise Set
Actual Time 6:49 AM CDT 7:45 PM CDT
Civil Twilight 6:22 AM CDT 8:11 PM CDT
Nautical Twilight 5:51 AM CDT 8:43 PM CDT
Astronomical Twilight 5:18 AM CDT 9:15 PM CDT
Moon 2:24 PM CDT No Moon Set
Length of Visible Light 13h 48m
Length of Day
12h 55m
Tomorrow will be 2m 17s shorter.
First Quarter, 52% of the Moon is Illuminated
Today
First Quarter
Sep 8
Full
Sep 15
Last Quarter
Sep 24
New
Oct 1
First Quarter

Today's Extremes

State Highs State Lows

Community

WunderPhotos

Upload Photos

1,749,677 photos uploaded!

WunderBlogs® & News

Nearby

Snow Depth

Station Depth Elevation
No new snow has been reported.

Earthquake Activity

City Distance Mag. Time & Date
No recent earthquake activity has been reported nearby.
Minimum magnitude displayed is 2.5.

Coastal Water Temperatures

Place Temperature
No Stations Reporting

Nearby Weather Stations